Time;durP1;ratioP1;P1;durP2;ratioP2;P2;SDS_P1;SDS_P2;PMS_P1;PMS_P2;Temp;Humidity;BMP_temperature;BMP_pressure;BME280_temperature;BME280_humidity;BME280_pressure;Samples;Min_cycle;Max_cycle;Signal;HPM_P1;HPM_P2
2023/06/26 00:01:29;;;;;;;1999.90;999.90;;;;;;;;;;4996937;28;20223;-72
2023/06/26 00:04:15;;;;;;;1999.90;999.90;;;;;;;;;;5002791;28;20233;-71
2023/06/26 00:07:00;;;;;;;1999.90;999.90;;;;;;;;;;4999954;28;20280;-71
2023/06/26 00:09:45;;;;;;;1999.90;999.90;;;;;;;;;;5001868;28;20231;-71
2023/06/26 00:12:31;;;;;;;1999.90;999.90;;;;;;;;;;5001752;28;20779;-71
2023/06/26 00:15:16;;;;;;;1999.90;999.90;;;;;;;;;;5006376;28;20338;-72
2023/06/26 00:18:03;;;;;;;1999.90;999.90;;;;;;;;;;5005200;28;20799;-71
2023/06/26 00:20:49;;;;;;;1999.90;999.90;;;;;;;;;;5005271;28;20930;-71
2023/06/26 00:23:36;;;;;;;1999.90;999.90;;;;;;;;;;5007871;28;20228;-71
2023/06/26 00:26:21;;;;;;;1999.90;999.90;;;;;;;;;;5014033;28;20334;-72
2023/06/26 00:29:06;;;;;;;1999.90;999.90;;;;;;;;;;5013603;28;20737;-71
2023/06/26 00:31:51;;;;;;;1999.90;999.90;;;;;;;;;;5014294;28;20340;-71
2023/06/26 00:34:36;;;;;;;1999.90;999.90;;;;;;;;;;5013876;28;20274;-71
2023/06/26 00:37:22;;;;;;;1999.90;999.90;;;;;;;;;;5013452;28;20302;-72
2023/06/26 00:40:08;;;;;;;1999.90;999.90;;;;;;;;;;5013738;28;20587;-71
2023/06/26 00:42:53;;;;;;;1999.90;999.90;;;;;;;;;;5012242;28;20408;-72
2023/06/26 00:45:38;;;;;;;1999.90;999.90;;;;;;;;;;5013559;28;20689;-72
2023/06/26 00:48:23;;;;;;;1999.90;999.90;;;;;;;;;;5013638;28;20267;-72
2023/06/26 00:51:08;;;;;;;1999.90;999.90;;;;;;;;;;5013532;28;20208;-71
2023/06/26 00:53:54;;;;;;;1999.90;999.90;;;;;;;;;;5013524;28;20234;-71
2023/06/26 00:56:39;;;;;;;1999.90;999.90;;;;;;;;;;5013421;28;20208;-71
2023/06/26 00:59:24;;;;;;;1999.90;999.90;;;;;;;;;;5013392;28;20199;-71
2023/06/26 01:02:09;;;;;;;1999.90;999.90;;;;;;;;;;5013380;28;20293;-71
2023/06/26 01:04:54;;;;;;;1999.90;999.90;;;;;;;;;;5013122;28;20300;-71
2023/06/26 01:07:39;;;;;;;1999.90;999.90;;;;;;;;;;5013134;28;20663;-71
2023/06/26 01:10:27;;;;;;;1999.90;999.90;;;;;;;;;;5013155;28;20211;-71
2023/06/26 01:13:13;;;;;;;1999.90;999.90;;;;;;;;;;5012950;28;20235;-71
2023/06/26 01:15:59;;;;;;;1999.90;999.90;;;;;;;;;;5013100;28;20205;-71
2023/06/26 01:18:45;;;;;;;1999.90;999.90;;;;;;;;;;5013117;28;20745;-70
2023/06/26 01:21:32;;;;;;;1999.90;999.90;;;;;;;;;;5012949;28;20362;-71
2023/06/26 01:24:20;;;;;;;1999.90;999.90;;;;;;;;;;5012660;28;20724;-72
2023/06/26 01:27:07;;;;;;;1999.90;999.90;;;;;;;;;;5012422;28;20737;-71
2023/06/26 01:29:52;;;;;;;1999.90;999.90;;;;;;;;;;5013142;28;20226;-71
2023/06/26 01:32:38;;;;;;;1999.90;999.90;;;;;;;;;;5012519;28;20206;-71
2023/06/26 01:35:23;;;;;;;1999.90;999.90;;;;;;;;;;5011812;28;20461;-72
2023/06/26 01:38:14;;;;;;;1999.90;999.90;;;;;;;;;;5012787;28;20203;-71
2023/06/26 01:40:59;;;;;;;1999.90;999.90;;;;;;;;;;5012478;28;20219;-71
2023/06/26 01:43:53;;;;;;;1999.90;999.90;;;;;;;;;;5012477;28;20222;-70
2023/06/26 01:46:41;;;;;;;1999.90;999.90;;;;;;;;;;5012765;28;20329;-71
2023/06/26 01:49:30;;;;;;;1999.90;999.90;;;;;;;;;;5010979;28;20230;-70
2023/06/26 01:52:19;;;;;;;1999.90;999.90;;;;;;;;;;5004465;28;20212;-71
2023/06/26 01:55:06;;;;;;;1999.90;999.90;;;;;;;;;;5012033;28;20216;-71
2023/06/26 01:57:53;;;;;;;1999.90;999.90;;;;;;;;;;5012680;28;20702;-71
2023/06/26 02:00:40;;;;;;;1999.90;999.90;;;;;;;;;;5012452;28;20203;-71
2023/06/26 02:03:26;;;;;;;1999.90;999.90;;;;;;;;;;5011963;28;20230;-71
2023/06/26 02:06:11;;;;;;;1999.90;999.90;;;;;;;;;;5012432;28;20209;-72
2023/06/26 02:08:56;;;;;;;1999.90;999.90;;;;;;;;;;5012572;28;20230;-71
2023/06/26 02:11:41;;;;;;;1999.90;999.90;;;;;;;;;;5012265;28;20567;-70
2023/06/26 02:14:26;;;;;;;1999.90;999.90;;;;;;;;;;5011659;28;20234;-71
2023/06/26 02:17:12;;;;;;;1999.90;999.90;;;;;;;;;;5012206;28;20289;-70
2023/06/26 02:19:57;;;;;;;1999.90;999.90;;;;;;;;;;5012278;28;20204;-71
2023/06/26 02:22:42;;;;;;;1999.90;999.90;;;;;;;;;;5012043;28;20208;-72
2023/06/26 02:25:26;;;;;;;1999.90;999.90;;;;;;;;;;5011972;28;20585;-71
2023/06/26 02:28:11;;;;;;;1999.90;999.90;;;;;;;;;;5012000;28;20227;-71
2023/06/26 02:30:56;;;;;;;1999.90;999.90;;;;;;;;;;5010532;28;20420;-72
2023/06/26 02:33:45;;;;;;;1999.90;999.90;;;;;;;;;;5011868;28;20596;-71
2023/06/26 02:36:30;;;;;;;1999.90;999.90;;;;;;;;;;5011991;28;20275;-71
2023/06/26 02:39:15;;;;;;;1999.90;999.90;;;;;;;;;;5011913;28;20791;-72
2023/06/26 02:42:00;;;;;;;1999.90;999.90;;;;;;;;;;5012039;28;20207;-71
2023/06/26 02:44:44;;;;;;;1999.90;999.90;;;;;;;;;;5011743;28;20308;-73
2023/06/26 02:47:29;;;;;;;1999.90;999.90;;;;;;;;;;5011830;28;20334;-71
2023/06/26 02:50:16;;;;;;;1999.90;999.90;;;;;;;;;;5011543;28;20313;-71
2023/06/26 02:53:01;;;;;;;1999.90;999.90;;;;;;;;;;5011550;28;20230;-72
2023/06/26 02:55:47;;;;;;;1999.90;999.90;;;;;;;;;;5011920;28;20210;-71
2023/06/26 02:58:32;;;;;;;1999.90;999.90;;;;;;;;;;5011627;28;20203;-71
2023/06/26 03:01:17;;;;;;;1999.90;999.90;;;;;;;;;;5015621;28;20475;-71
2023/06/26 03:04:02;;;;;;;1999.90;999.90;;;;;;;;;;5008138;28;20230;-71
2023/06/26 03:06:48;;;;;;;1999.90;999.90;;;;;;;;;;4998399;28;20207;-71
2023/06/26 03:09:33;;;;;;;1999.90;999.90;;;;;;;;;;5010257;28;20227;-69
2023/06/26 03:12:18;;;;;;;1999.90;999.90;;;;;;;;;;4995494;28;20335;-70
2023/06/26 03:15:04;;;;;;;1999.90;999.90;;;;;;;;;;4999507;28;20609;-70
2023/06/26 03:17:49;;;;;;;1999.90;999.90;;;;;;;;;;4998719;28;20211;-70
2023/06/26 03:20:34;;;;;;;1999.90;999.90;;;;;;;;;;4995058;28;20634;-70
2023/06/26 03:23:20;;;;;;;1999.90;999.90;;;;;;;;;;4994394;28;20434;-70
2023/06/26 03:26:05;;;;;;;1999.90;999.90;;;;;;;;;;5002408;28;20605;-71
2023/06/26 03:28:50;;;;;;;1999.90;999.90;;;;;;;;;;4995212;28;20335;-70
2023/06/26 03:31:35;;;;;;;1999.90;999.90;;;;;;;;;;4995248;28;20703;-70
2023/06/26 03:34:20;;;;;;;1999.90;999.90;;;;;;;;;;4995056;28;20287;-69
2023/06/26 03:37:05;;;;;;;1999.90;999.90;;;;;;;;;;4994829;28;20219;-68
2023/06/26 03:39:51;;;;;;;1999.90;999.90;;;;;;;;;;5005493;28;20214;-69
2023/06/26 03:42:36;;;;;;;1999.90;999.90;;;;;;;;;;4994864;28;20219;-69
2023/06/26 03:45:21;;;;;;;1999.90;999.90;;;;;;;;;;5003361;28;20698;-69
2023/06/26 03:48:07;;;;;;;1999.90;999.90;;;;;;;;;;5004738;28;20223;-70
2023/06/26 03:50:52;;;;;;;1999.90;999.90;;;;;;;;;;5000453;28;20261;-68
2023/06/26 03:53:38;;;;;;;1999.90;999.90;;;;;;;;;;5003372;28;20446;-67
2023/06/26 03:56:24;;;;;;;1999.90;999.90;;;;;;;;;;4998377;28;20447;-68
2023/06/26 03:59:10;;;;;;;1999.90;999.90;;;;;;;;;;4994588;28;20585;-69
2023/06/26 04:01:56;;;;;;;1999.90;999.90;;;;;;;;;;4994697;28;20222;-70
2023/06/26 04:04:41;;;;;;;1999.90;999.90;;;;;;;;;;4994287;28;20239;-70
2023/06/26 04:07:26;;;;;;;1999.90;999.90;;;;;;;;;;4994810;28;20309;-70
2023/06/26 04:10:11;;;;;;;1999.90;999.90;;;;;;;;;;5005280;28;20235;-69
2023/06/26 04:12:57;;;;;;;1999.90;999.90;;;;;;;;;;4999128;28;20900;-69
2023/06/26 04:15:42;;;;;;;1999.90;999.90;;;;;;;;;;5007127;28;20412;-68
2023/06/26 04:18:27;;;;;;;1999.90;999.90;;;;;;;;;;4998687;28;20866;-68
2023/06/26 04:21:13;;;;;;;1999.90;999.90;;;;;;;;;;4994484;28;20267;-70
2023/06/26 04:23:58;;;;;;;1999.90;999.90;;;;;;;;;;4993891;28;20598;-68
2023/06/26 04:26:45;;;;;;;1999.90;999.90;;;;;;;;;;4993921;28;20487;-69
2023/06/26 04:29:31;;;;;;;1999.90;999.90;;;;;;;;;;4997267;28;20217;-69
2023/06/26 04:32:16;;;;;;;1999.90;999.90;;;;;;;;;;4994008;28;20210;-69
2023/06/26 04:35:02;;;;;;;1999.90;999.90;;;;;;;;;;4993661;28;20398;-69
2023/06/26 04:37:47;;;;;;;1999.90;999.90;;;;;;;;;;4997142;28;20276;-69
2023/06/26 04:40:32;;;;;;;1999.90;999.90;;;;;;;;;;4993893;28;20203;-69
2023/06/26 04:43:17;;;;;;;1999.90;999.90;;;;;;;;;;4997928;28;20234;-70
2023/06/26 04:46:04;;;;;;;1999.90;999.90;;;;;;;;;;5000437;28;20211;-70
2023/06/26 04:48:49;;;;;;;1999.90;999.90;;;;;;;;;;4997430;28;20211;-72
2023/06/26 04:51:40;;;;;;;1999.90;999.90;;;;;;;;;;4992390;28;20479;-70
2023/06/26 04:54:25;;;;;;;1999.90;999.90;;;;;;;;;;4993201;28;20240;-71
2023/06/26 04:57:11;;;;;;;1999.90;999.90;;;;;;;;;;5000022;28;20219;-68
2023/06/26 04:59:57;;;;;;;1999.90;999.90;;;;;;;;;;4995613;28;20322;-70
2023/06/26 05:02:43;;;;;;;1999.90;999.90;;;;;;;;;;4996924;28;20246;-70
2023/06/26 05:05:28;;;;;;;1999.90;999.90;;;;;;;;;;4993299;28;20239;-70
2023/06/26 05:08:14;;;;;;;1999.90;999.90;;;;;;;;;;5005805;28;20216;-71
2023/06/26 05:10:59;;;;;;;1999.90;999.90;;;;;;;;;;5000658;28;20429;-72
2023/06/26 05:13:44;;;;;;;1999.90;999.90;;;;;;;;;;4992898;28;20237;-72
2023/06/26 05:16:30;;;;;;;1999.90;999.90;;;;;;;;;;4993415;28;20221;-72
2023/06/26 05:19:16;;;;;;;1999.90;999.90;;;;;;;;;;4997631;28;20205;-72
2023/06/26 05:22:03;;;;;;;1999.90;999.90;;;;;;;;;;4992520;28;20706;-72
2023/06/26 05:24:48;;;;;;;1999.90;999.90;;;;;;;;;;4992931;28;20238;-72
2023/06/26 05:27:34;;;;;;;1999.90;999.90;;;;;;;;;;4998682;28;20709;-72
2023/06/26 05:30:19;;;;;;;1999.90;999.90;;;;;;;;;;4993206;28;20358;-72
2023/06/26 05:33:05;;;;;;;1999.90;999.90;;;;;;;;;;5000977;28;20619;-72
2023/06/26 05:35:52;;;;;;;1999.90;999.90;;;;;;;;;;5009538;28;20687;-73
2023/06/26 05:38:38;;;;;;;1999.90;999.90;;;;;;;;;;5005010;28;20702;-73
2023/06/26 05:41:23;;;;;;;1999.90;999.90;;;;;;;;;;4997548;28;20210;-73
2023/06/26 05:44:09;;;;;;;1999.90;999.90;;;;;;;;;;5003604;28;20613;-73
2023/06/26 05:46:53;;;;;;;1999.90;999.90;;;;;;;;;;4995125;28;20226;-72
2023/06/26 05:49:38;;;;;;;1999.90;999.90;;;;;;;;;;4992627;28;20223;-73
2023/06/26 05:52:25;;;;;;;1999.90;999.90;;;;;;;;;;4996695;28;20575;-73
2023/06/26 05:55:11;;;;;;;1999.90;999.90;;;;;;;;;;5005359;28;20219;-73
2023/06/26 05:57:57;;;;;;;1999.90;999.90;;;;;;;;;;4998857;28;20230;-73
2023/06/26 06:00:42;;;;;;;1999.90;999.90;;;;;;;;;;4996322;28;20568;-73
2023/06/26 06:03:27;;;;;;;1999.90;999.90;;;;;;;;;;4992833;28;20433;-73
2023/06/26 06:06:13;;;;;;;1999.90;999.90;;;;;;;;;;4992445;28;20202;-73
2023/06/26 06:08:59;;;;;;;1999.90;999.90;;;;;;;;;;4995487;28;20250;-73
2023/06/26 06:11:44;;;;;;;1999.90;999.90;;;;;;;;;;4998683;28;20215;-73
2023/06/26 06:14:29;;;;;;;1999.90;999.90;;;;;;;;;;5009867;28;20227;-73
2023/06/26 06:17:14;;;;;;;1999.90;999.90;;;;;;;;;;5010647;28;20215;-75
2023/06/26 06:19:59;;;;;;;1999.90;999.90;;;;;;;;;;5011153;28;20202;-73
2023/06/26 06:22:44;;;;;;;1999.90;999.90;;;;;;;;;;5003054;28;20258;-73
2023/06/26 06:25:30;;;;;;;1999.90;999.90;;;;;;;;;;4995046;28;20288;-74
2023/06/26 06:28:16;;;;;;;1999.90;999.90;;;;;;;;;;4995954;28;20219;-75
2023/06/26 06:31:01;;;;;;;1999.90;999.90;;;;;;;;;;4995864;28;20234;-75
2023/06/26 06:33:46;;;;;;;1999.90;999.90;;;;;;;;;;4995667;28;20231;-75
2023/06/26 06:36:31;;;;;;;1999.90;999.90;;;;;;;;;;5005002;28;20202;-75
2023/06/26 06:39:15;;;;;;;1999.90;999.90;;;;;;;;;;5014963;28;20293;-75
2023/06/26 06:42:02;;;;;;;1999.90;999.90;;;;;;;;;;5002646;28;20254;-75
2023/06/26 06:44:47;;;;;;;1999.90;999.90;;;;;;;;;;4996651;28;20571;-75
2023/06/26 06:47:32;;;;;;;1999.90;999.90;;;;;;;;;;4996543;28;20211;-74
2023/06/26 06:50:17;;;;;;;1999.90;999.90;;;;;;;;;;4996014;28;20218;-73
2023/06/26 06:53:02;;;;;;;1999.90;999.90;;;;;;;;;;4996193;28;20262;-72
2023/06/26 06:55:48;;;;;;;1999.90;999.90;;;;;;;;;;4996258;28;20571;-73
2023/06/26 06:58:35;;;;;;;1999.90;999.90;;;;;;;;;;4994899;28;20403;-74
2023/06/26 07:01:20;;;;;;;1999.90;999.90;;;;;;;;;;4996153;28;20230;-74
2023/06/26 07:04:05;;;;;;;1999.90;999.90;;;;;;;;;;4995787;28;20231;-74
2023/06/26 07:06:50;;;;;;;1999.90;999.90;;;;;;;;;;4996151;28;20208;-73
2023/06/26 07:09:35;;;;;;;1999.90;999.90;;;;;;;;;;5013130;28;20226;-74
2023/06/26 07:12:20;;;;;;;1999.90;999.90;;;;;;;;;;5011635;28;20202;-73
2023/06/26 07:15:07;;;;;;;1999.90;999.90;;;;;;;;;;5014212;28;20600;-74
2023/06/26 07:17:52;;;;;;;1999.90;999.90;;;;;;;;;;4996023;28;20751;-74
2023/06/26 07:20:37;;;;;;;1999.90;999.90;;;;;;;;;;4997106;28;20211;-74
2023/06/26 07:23:22;;;;;;;1999.90;999.90;;;;;;;;;;4996260;28;20223;-74
2023/06/26 07:26:07;;;;;;;1999.90;999.90;;;;;;;;;;5009833;28;20214;-74
2023/06/26 07:28:51;;;;;;;1999.90;999.90;;;;;;;;;;5013636;28;20302;-74
2023/06/26 07:31:38;;;;;;;1999.90;999.90;;;;;;;;;;5013804;28;20226;-74
2023/06/26 07:34:23;;;;;;;1999.90;999.90;;;;;;;;;;5013718;28;20596;-72
2023/06/26 07:37:08;;;;;;;1999.90;999.90;;;;;;;;;;5013539;28;20210;-74
2023/06/26 07:39:53;;;;;;;1999.90;999.90;;;;;;;;;;5013810;28;20211;-73
2023/06/26 07:42:38;;;;;;;1999.90;999.90;;;;;;;;;;5001826;28;20703;-74
2023/06/26 07:45:23;;;;;;;1999.90;999.90;;;;;;;;;;5000072;28;20211;-75
2023/06/26 07:48:09;;;;;;;1999.90;999.90;;;;;;;;;;5002652;28;20699;-75
2023/06/26 07:50:54;;;;;;;1999.90;999.90;;;;;;;;;;4994350;28;20438;-76
2023/06/26 07:53:39;;;;;;;1999.90;999.90;;;;;;;;;;4998504;28;20323;-73
2023/06/26 07:56:24;;;;;;;1999.90;999.90;;;;;;;;;;4997032;28;20276;-74
2023/06/26 07:59:09;;;;;;;1999.90;999.90;;;;;;;;;;5004038;28;20828;-75
2023/06/26 08:01:54;;;;;;;1999.90;999.90;;;;;;;;;;5003883;28;20338;-75
2023/06/26 08:04:41;;;;;;;1999.90;999.90;;;;;;;;;;5002962;28;20235;-74
2023/06/26 08:07:25;;;;;;;1999.90;999.90;;;;;;;;;;5006114;28;20586;-74
2023/06/26 08:10:10;;;;;;;1999.90;999.90;;;;;;;;;;4995868;28;20250;-74
2023/06/26 08:12:56;;;;;;;1999.90;999.90;;;;;;;;;;4996047;28;20235;-75
2023/06/26 08:15:40;;;;;;;1999.90;999.90;;;;;;;;;;5000750;28;20224;-74
2023/06/26 08:18:25;;;;;;;1999.90;999.90;;;;;;;;;;5003841;28;20326;-76
2023/06/26 08:21:11;;;;;;;1999.90;999.90;;;;;;;;;;5004567;28;20405;-75
2023/06/26 08:23:56;;;;;;;1999.90;999.90;;;;;;;;;;4995656;28;20254;-74
2023/06/26 08:26:41;;;;;;;1999.90;999.90;;;;;;;;;;5000279;28;20246;-74
2023/06/26 08:29:26;;;;;;;1999.90;999.90;;;;;;;;;;5002368;28;20211;-74
2023/06/26 08:32:11;;;;;;;1999.90;999.90;;;;;;;;;;5001892;28;20242;-74
2023/06/26 08:34:56;;;;;;;1999.90;999.90;;;;;;;;;;5000441;28;20235;-74
2023/06/26 08:37:42;;;;;;;1999.90;999.90;;;;;;;;;;4996855;28;20219;-75
2023/06/26 08:40:27;;;;;;;1999.90;999.90;;;;;;;;;;4999151;28;20219;-75
2023/06/26 08:43:13;;;;;;;1999.90;999.90;;;;;;;;;;4999581;28;20537;-73
2023/06/26 08:45:58;;;;;;;1999.90;999.90;;;;;;;;;;4998360;28;20358;-74
2023/06/26 08:48:46;;;;;;;1999.90;999.90;;;;;;;;;;5010300;28;20215;-75
2023/06/26 08:51:34;;;;;;;1999.90;999.90;;;;;;;;;;5000082;28;20231;-73
2023/06/26 08:54:23;;;;;;;1999.90;999.90;;;;;;;;;;4999320;28;20751;-73
2023/06/26 08:57:08;;;;;;;1999.90;999.90;;;;;;;;;;4996060;28;20209;-75
2023/06/26 08:59:53;;;;;;;1999.90;999.90;;;;;;;;;;5007494;28;20331;-72
2023/06/26 09:02:39;;;;;;;1999.90;999.90;;;;;;;;;;4998586;28;20215;-73
2023/06/26 09:05:23;;;;;;;1999.90;999.90;;;;;;;;;;5000357;28;20298;-72
2023/06/26 09:08:08;;;;;;;1999.90;999.90;;;;;;;;;;5000031;28;20359;-73
2023/06/26 09:10:55;;;;;;;1999.90;999.90;;;;;;;;;;4997364;28;20715;-74
2023/06/26 09:13:40;;;;;;;1999.90;999.90;;;;;;;;;;4998071;28;20956;-75
2023/06/26 09:16:27;;;;;;;1999.90;999.90;;;;;;;;;;5000519;28;20219;-72
2023/06/26 09:19:12;;;;;;;1999.90;999.90;;;;;;;;;;4994363;28;20289;-74
2023/06/26 09:21:57;;;;;;;1999.90;999.90;;;;;;;;;;4996310;28;20211;-73
2023/06/26 09:24:43;;;;;;;1999.90;999.90;;;;;;;;;;4993864;28;20235;-74
2023/06/26 09:27:30;;;;;;;1999.90;999.90;;;;;;;;;;4993853;28;20211;-73
2023/06/26 09:30:17;;;;;;;1999.90;999.90;;;;;;;;;;4997118;28;20702;-74
2023/06/26 09:33:13;;;;;;;1999.90;999.90;;;;;;;;;;4994617;28;20237;-74
2023/06/26 09:35:58;;;;;;;1999.90;999.90;;;;;;;;;;4997541;28;20411;-73
2023/06/26 09:38:43;;;;;;;1999.90;999.90;;;;;;;;;;4994662;28;20203;-74
2023/06/26 09:41:30;;;;;;;1999.90;999.90;;;;;;;;;;4995101;28;20566;-75
2023/06/26 09:44:17;;;;;;;1999.90;999.90;;;;;;;;;;4998694;28;20720;-75
2023/06/26 09:47:02;;;;;;;1999.90;999.90;;;;;;;;;;4998462;28;20206;-74
2023/06/26 09:49:48;;;;;;;1999.90;999.90;;;;;;;;;;5000933;28;20282;-75
2023/06/26 09:52:34;;;;;;;1999.90;999.90;;;;;;;;;;4998890;28;20587;-75
2023/06/26 09:55:21;;;;;;;1999.90;999.90;;;;;;;;;;4998499;28;20492;-76
2023/06/26 09:58:06;;;;;;;1999.90;999.90;;;;;;;;;;4993380;28;20210;-74
2023/06/26 10:00:53;;;;;;;1999.90;999.90;;;;;;;;;;4999226;28;20222;-75
2023/06/26 10:03:38;;;;;;;1999.90;999.90;;;;;;;;;;4998254;28;20293;-77
2023/06/26 10:06:25;;;;;;;1999.90;999.90;;;;;;;;;;4995610;28;20206;-75
2023/06/26 10:09:11;;;;;;;1999.90;999.90;;;;;;;;;;5000478;28;20720;-75
2023/06/26 10:11:57;;;;;;;1999.90;999.90;;;;;;;;;;4996699;28;20281;-76
2023/06/26 10:14:42;;;;;;;1999.90;999.90;;;;;;;;;;4991527;28;20247;-76
2023/06/26 10:17:31;;;;;;;1999.90;999.90;;;;;;;;;;5003180;28;20358;-76
2023/06/26 10:20:16;;;;;;;1999.90;999.90;;;;;;;;;;4994481;28;20402;-76
2023/06/26 10:23:03;;;;;;;1999.90;999.90;;;;;;;;;;4998167;28;20230;-76
2023/06/26 10:25:49;;;;;;;1999.90;999.90;;;;;;;;;;4994210;28;20211;-75
2023/06/26 10:28:35;;;;;;;1999.90;999.90;;;;;;;;;;4997428;28;20315;-76
2023/06/26 10:31:21;;;;;;;1999.90;999.90;;;;;;;;;;5002226;28;20305;-75
2023/06/26 10:34:07;;;;;;;1999.90;999.90;;;;;;;;;;5004403;28;20281;-77
2023/06/26 10:36:59;;;;;;;1999.90;999.90;;;;;;;;;;4992472;28;20218;-73
2023/06/26 10:39:49;;;;;;;1999.90;999.90;;;;;;;;;;4993312;28;20242;-75
2023/06/26 10:42:35;;;;;;;1999.90;999.90;;;;;;;;;;5000394;28;20210;-77
2023/06/26 10:45:21;;;;;;;1999.90;999.90;;;;;;;;;;4998681;28;20215;-75
2023/06/26 10:48:06;;;;;;;1999.90;999.90;;;;;;;;;;4995850;28;20216;-76
2023/06/26 10:50:54;;;;;;;1999.90;999.90;;;;;;;;;;4994009;28;20437;-77
2023/06/26 10:53:39;;;;;;;1999.90;999.90;;;;;;;;;;4993764;28;20353;-75
2023/06/26 10:56:43;;;;;;;1999.90;999.90;;;;;;;;;;5001214;28;20225;-75
2023/06/26 10:59:29;;;;;;;1999.90;999.90;;;;;;;;;;4997714;28;20220;-76
2023/06/26 11:02:14;;;;;;;1999.90;999.90;;;;;;;;;;4997650;28;20273;-76
2023/06/26 11:05:00;;;;;;;1999.90;999.90;;;;;;;;;;4995329;28;20235;-76
2023/06/26 11:08:00;;;;;;;1999.90;999.90;;;;;;;;;;5000553;28;20210;-75
2023/06/26 11:10:51;;;;;;;1999.90;999.90;;;;;;;;;;4991927;28;20270;-75
2023/06/26 11:13:36;;;;;;;1999.90;999.90;;;;;;;;;;4998118;28;20312;-74
2023/06/26 11:16:21;;;;;;;1999.90;999.90;;;;;;;;;;4996564;28;20211;-77
2023/06/26 11:19:07;;;;;;;1999.90;999.90;;;;;;;;;;4994804;28;20211;-75
2023/06/26 11:21:52;;;;;;;1999.90;999.90;;;;;;;;;;5002478;28;20578;-75
2023/06/26 11:24:37;;;;;;;1999.90;999.90;;;;;;;;;;4997281;28;20759;-75
2023/06/26 11:27:24;;;;;;;1999.90;999.90;;;;;;;;;;5001301;28;20216;-76
2023/06/26 11:30:09;;;;;;;1999.90;999.90;;;;;;;;;;5000387;28;20211;-75
2023/06/26 11:33:03;;;;;;;1999.90;999.90;;;;;;;;;;5001602;28;20343;-75
2023/06/26 11:35:48;;;;;;;1999.90;999.90;;;;;;;;;;5002066;28;20207;-75
2023/06/26 11:38:37;;;;;;;1999.90;999.90;;;;;;;;;;5004680;28;20718;-75
2023/06/26 11:41:22;;;;;;;1999.90;999.90;;;;;;;;;;4997170;28;20204;-75
2023/06/26 11:44:10;;;;;;;1999.90;999.90;;;;;;;;;;5001413;28;20448;-74
2023/06/26 11:46:55;;;;;;;1999.90;999.90;;;;;;;;;;5002128;28;20214;-75
2023/06/26 11:49:42;;;;;;;1999.90;999.90;;;;;;;;;;5004378;28;20211;-75
2023/06/26 11:52:27;;;;;;;1999.90;999.90;;;;;;;;;;4998544;28;20358;-75
2023/06/26 11:55:12;;;;;;;1999.90;999.90;;;;;;;;;;5005949;28;20206;-77
2023/06/26 11:57:57;;;;;;;1999.90;999.90;;;;;;;;;;5012983;28;20211;-76
2023/06/26 12:00:44;;;;;;;1999.90;999.90;;;;;;;;;;5005834;28;20226;-73
2023/06/26 12:03:30;;;;;;;1999.90;999.90;;;;;;;;;;5006718;28;20593;-74
2023/06/26 12:06:15;;;;;;;1999.90;999.90;;;;;;;;;;4999848;28;20408;-73
2023/06/26 12:09:02;;;;;;;1999.90;999.90;;;;;;;;;;4998375;28;20586;-73
2023/06/26 12:11:48;;;;;;;1999.90;999.90;;;;;;;;;;4999612;28;20219;-72
2023/06/26 12:14:33;;;;;;;1999.90;999.90;;;;;;;;;;4997433;28;20230;-73
2023/06/26 12:17:22;;;;;;;1999.90;999.90;;;;;;;;;;4995942;28;20207;-75
2023/06/26 12:20:18;;;;;;;1999.90;999.90;;;;;;;;;;5004065;28;20277;-74
2023/06/26 12:23:12;;;;;;;1999.90;999.90;;;;;;;;;;4998993;28;20235;-73
2023/06/26 12:25:57;;;;;;;1999.90;999.90;;;;;;;;;;5014094;28;20198;-75
2023/06/26 12:28:45;;;;;;;1999.90;999.90;;;;;;;;;;5006518;28;20282;-75
2023/06/26 12:31:30;;;;;;;1999.90;999.90;;;;;;;;;;4999574;28;20239;-74
2023/06/26 12:34:18;;;;;;;1999.90;999.90;;;;;;;;;;4993434;28;20359;-74
2023/06/26 12:37:04;;;;;;;1999.90;999.90;;;;;;;;;;4999575;28;20578;-75
2023/06/26 12:39:50;;;;;;;1999.90;999.90;;;;;;;;;;5000763;28;20576;-76
2023/06/26 12:42:34;;;;;;;1999.90;999.90;;;;;;;;;;5001016;28;20569;-75
2023/06/26 12:45:20;;;;;;;1999.90;999.90;;;;;;;;;;5002083;28;20210;-75
2023/06/26 12:48:09;;;;;;;1999.90;999.90;;;;;;;;;;5001455;28;20282;-75
2023/06/26 12:50:55;;;;;;;1999.90;999.90;;;;;;;;;;5001701;28;20216;-75
2023/06/26 12:53:40;;;;;;;1999.90;999.90;;;;;;;;;;4998679;28;20329;-75
2023/06/26 12:56:25;;;;;;;1999.90;999.90;;;;;;;;;;4999441;28;20554;-75
2023/06/26 12:59:10;;;;;;;1999.90;999.90;;;;;;;;;;4997439;28;20410;-75
2023/06/26 13:01:55;;;;;;;1999.90;999.90;;;;;;;;;;5000137;28;20707;-76
2023/06/26 13:04:40;;;;;;;1999.90;999.90;;;;;;;;;;5000281;28;20301;-75
2023/06/26 13:07:27;;;;;;;1999.90;999.90;;;;;;;;;;4999406;28;20278;-74
2023/06/26 13:10:12;;;;;;;1999.90;999.90;;;;;;;;;;4996336;28;20207;-76
2023/06/26 13:12:57;;;;;;;1999.90;999.90;;;;;;;;;;4996870;28;20677;-75
2023/06/26 13:15:42;;;;;;;1999.90;999.90;;;;;;;;;;5002125;28;20213;-75
2023/06/26 13:18:27;;;;;;;1999.90;999.90;;;;;;;;;;4998898;28;20214;-75
2023/06/26 13:21:12;;;;;;;1999.90;999.90;;;;;;;;;;4996222;28;20577;-74
2023/06/26 13:23:58;;;;;;;1999.90;999.90;;;;;;;;;;4996741;28;20231;-74
2023/06/26 13:26:44;;;;;;;1999.90;999.90;;;;;;;;;;4997579;28;20223;-75
2023/06/26 13:29:29;;;;;;;1999.90;999.90;;;;;;;;;;4999852;28;20129;-75
2023/06/26 13:32:14;;;;;;;1999.90;999.90;;;;;;;;;;4995164;28;20237;-75
2023/06/26 13:34:59;;;;;;;1999.90;999.90;;;;;;;;;;4993900;28;20235;-76
2023/06/26 13:37:44;;;;;;;1999.90;999.90;;;;;;;;;;4998963;28;20619;-76
2023/06/26 13:40:30;;;;;;;1999.90;999.90;;;;;;;;;;5002120;28;20207;-76
2023/06/26 13:43:15;;;;;;;1999.90;999.90;;;;;;;;;;5000935;28;20246;-76
2023/06/26 13:46:01;;;;;;;1999.90;999.90;;;;;;;;;;4998626;28;20719;-75
2023/06/26 13:48:46;;;;;;;1999.90;999.90;;;;;;;;;;4994213;28;20300;-77
2023/06/26 13:51:31;;;;;;;1999.90;999.90;;;;;;;;;;5000634;28;20226;-75
2023/06/26 13:54:16;;;;;;;1999.90;999.90;;;;;;;;;;4993540;28;20735;-76
2023/06/26 13:57:02;;;;;;;1999.90;999.90;;;;;;;;;;4998501;28;20347;-76
2023/06/26 13:59:47;;;;;;;1999.90;999.90;;;;;;;;;;4994390;28;20210;-77
2023/06/26 14:02:32;;;;;;;1999.90;999.90;;;;;;;;;;4999612;28;20439;-75
2023/06/26 14:05:18;;;;;;;1999.90;999.90;;;;;;;;;;4999877;28;20334;-76
2023/06/26 14:08:04;;;;;;;1999.90;999.90;;;;;;;;;;5000771;28;20234;-77
2023/06/26 14:10:49;;;;;;;1999.90;999.90;;;;;;;;;;4996234;28;20298;-76
2023/06/26 14:13:35;;;;;;;1999.90;999.90;;;;;;;;;;4996967;28;20238;-76
2023/06/26 14:16:21;;;;;;;1999.90;999.90;;;;;;;;;;4997790;28;20215;-75
2023/06/26 14:19:06;;;;;;;1999.90;999.90;;;;;;;;;;5000825;28;20249;-76
2023/06/26 14:21:50;;;;;;;1999.90;999.90;;;;;;;;;;4998448;28;20219;-76
2023/06/26 14:24:35;;;;;;;1999.90;999.90;;;;;;;;;;5001492;28;20297;-76
2023/06/26 14:27:20;;;;;;;1999.90;999.90;;;;;;;;;;5001456;28;20698;-76
2023/06/26 14:30:08;;;;;;;1999.90;999.90;;;;;;;;;;4997136;28;20203;-76
2023/06/26 14:32:53;;;;;;;1999.90;999.90;;;;;;;;;;5000472;28;20276;-76
2023/06/26 14:35:37;;;;;;;1999.90;999.90;;;;;;;;;;5001034;28;20443;-77
2023/06/26 14:38:22;;;;;;;1999.90;999.90;;;;;;;;;;4996059;28;20297;-77
2023/06/26 14:41:07;;;;;;;1999.90;999.90;;;;;;;;;;4998497;28;20269;-76
2023/06/26 14:43:53;;;;;;;1999.90;999.90;;;;;;;;;;4994527;28;20241;-75
2023/06/26 14:46:39;;;;;;;1999.90;999.90;;;;;;;;;;4995496;28;20219;-75
2023/06/26 14:49:25;;;;;;;1999.90;999.90;;;;;;;;;;5001890;28;20203;-74
2023/06/26 14:52:10;;;;;;;1999.90;999.90;;;;;;;;;;4998493;28;20227;-74
2023/06/26 14:54:55;;;;;;;1999.90;999.90;;;;;;;;;;4998233;28;20352;-75
2023/06/26 14:57:40;;;;;;;1999.90;999.90;;;;;;;;;;5006241;28;20226;-76
2023/06/26 15:00:26;;;;;;;1999.90;999.90;;;;;;;;;;5003135;28;20633;-76
2023/06/26 15:03:12;;;;;;;1999.90;999.90;;;;;;;;;;5000996;28;20419;-76
2023/06/26 15:05:57;;;;;;;1999.90;999.90;;;;;;;;;;4999441;28;20691;-76
2023/06/26 15:08:42;;;;;;;1999.90;999.90;;;;;;;;;;4998522;28;20456;-77
2023/06/26 15:11:27;;;;;;;1999.90;999.90;;;;;;;;;;5002570;28;20214;-75
2023/06/26 15:14:12;;;;;;;1999.90;999.90;;;;;;;;;;4998015;28;20319;-75
2023/06/26 15:16:56;;;;;;;1999.90;999.90;;;;;;;;;;4999616;28;20290;-75
2023/06/26 15:19:43;;;;;;;1999.90;999.90;;;;;;;;;;4997275;28;20619;-75
2023/06/26 15:22:28;;;;;;;1999.90;999.90;;;;;;;;;;5001180;28;20216;-76
2023/06/26 15:25:13;;;;;;;1999.90;999.90;;;;;;;;;;5005210;28;20584;-75